UHSS 152200Z 36007MPS 9999 BKN005 BKN033CB 10/09 Q1004 R01/250065 NOSIG RMK MT OBSC QFE752/1003
QNH:(hPa/inHg/mmHg)1004 / 29.65 / 753
QFE:(hPa/inHg/mmHg)1002 / 29.58 / 751
Temperature10
Dew Point9
Visibility> 10000
Weather
Cloud CoverBKN (500);
BKN (3300);
Transition Height1600 m./5400 ft.
Transition LevelFL70
SQUAWK